Time;durP1;ratioP1;P1;durP2;ratioP2;P2;SDS_P1;SDS_P2;PMS_P1;PMS_P2;Temp;Humidity;BMP_temperature;BMP_pressure;BME280_temperature;BME280_humidity;BME280_pressure;Samples;Min_cycle;Max_cycle;Signal;HPM_P1;HPM_P2
2024/02/05 00:01:17;;;;;;;4.60;2.33;;;10.10;99.90;;;;;;5060645;28;20421;-63
2024/02/05 00:03:45;;;;;;;5.00;2.22;;;10.10;99.90;;;;;;5069962;28;20372;-63
2024/02/05 00:06:14;;;;;;;9.77;2.30;;;10.10;99.90;;;;;;5062351;28;20028;-63
2024/02/05 00:08:40;;;;;;;5.25;2.35;;;10.10;99.90;;;;;;5062892;28;20096;-63
2024/02/05 00:11:06;;;;;;;14.07;2.25;;;10.10;99.90;;;;;;5064832;28;20048;-63
2024/02/05 00:13:32;;;;;;;9.90;2.67;;;10.10;99.90;;;;;;5053829;28;20115;-63
2024/02/05 00:15:58;;;;;;;5.03;2.60;;;10.10;99.90;;;;;;5065546;28;20060;-64
2024/02/05 00:18:26;;;;;;;13.20;3.70;;;10.10;99.90;;;;;;5068270;28;20490;-63
2024/02/05 00:20:52;;;;;;;5.95;2.55;;;10.20;99.90;;;;;;5070901;28;20032;-63
2024/02/05 00:23:18;;;;;;;13.25;4.50;;;10.10;99.90;;;;;;5054744;28;20599;-63
2024/02/05 00:25:44;;;;;;;12.63;2.35;;;10.20;99.90;;;;;;5070272;28;20016;-63
2024/02/05 00:28:10;;;;;;;6.78;2.03;;;10.10;99.90;;;;;;5072481;28;20029;-63
2024/02/05 00:30:36;;;;;;;9.73;2.72;;;10.20;99.90;;;;;;5068977;28;20119;-63
2024/02/05 00:33:02;;;;;;;6.60;2.20;;;10.20;99.90;;;;;;5061420;28;20108;-63
2024/02/05 00:35:28;;;;;;;9.32;2.17;;;10.20;99.90;;;;;;5060672;28;20031;-63
2024/02/05 00:37:53;;;;;;;8.18;3.08;;;10.20;99.90;;;;;;5060603;28;20036;-63
2024/02/05 00:40:20;;;;;;;10.02;2.63;;;10.20;99.90;;;;;;5063387;28;20086;-63
2024/02/05 00:42:46;;;;;;;9.10;2.38;;;10.20;99.90;;;;;;5061040;28;20100;-63
2024/02/05 00:45:11;;;;;;;11.13;2.92;;;10.20;99.90;;;;;;5065015;28;20127;-63
2024/02/05 00:47:37;;;;;;;9.40;2.30;;;10.30;99.90;;;;;;5060849;28;20033;-63
2024/02/05 00:50:04;;;;;;;12.68;2.78;;;10.20;99.90;;;;;;5068857;28;20040;-63
2024/02/05 00:52:30;;;;;;;16.38;3.20;;;10.20;99.90;;;;;;5065798;28;20028;-63
2024/02/05 00:54:56;;;;;;;10.70;2.97;;;10.20;99.90;;;;;;5060637;28;20040;-63
2024/02/05 00:57:22;;;;;;;10.65;2.45;;;10.20;99.90;;;;;;5063402;28;20506;-63
2024/02/05 00:59:47;;;;;;;10.27;3.22;;;10.20;99.90;;;;;;5059959;28;20021;-63
2024/02/05 01:02:13;;;;;;;15.02;3.22;;;10.20;99.90;;;;;;5034830;28;20125;-63
2024/02/05 01:04:39;;;;;;;12.90;4.00;;;10.20;99.90;;;;;;5067903;28;20028;-63
2024/02/05 01:07:05;;;;;;;17.10;3.72;;;10.20;99.90;;;;;;5070832;28;20393;-63
2024/02/05 01:09:31;;;;;;;9.90;2.58;;;10.20;99.90;;;;;;5066569;28;20025;-63
2024/02/05 01:11:56;;;;;;;13.02;2.65;;;10.20;99.90;;;;;;5066603;28;20488;-62
2024/02/05 01:14:22;;;;;;;18.00;3.13;;;10.30;99.90;;;;;;5066795;28;20036;-63
2024/02/05 01:16:48;;;;;;;10.02;2.55;;;10.20;99.90;;;;;;5065857;28;20025;-63
2024/02/05 01:19:14;;;;;;;10.52;3.03;;;10.30;99.90;;;;;;5066294;28;20024;-63
2024/02/05 01:21:39;;;;;;;19.38;3.50;;;10.20;99.90;;;;;;5068867;28;20026;-63
2024/02/05 01:24:05;;;;;;;23.70;3.10;;;10.20;99.90;;;;;;5063233;28;20055;-63
2024/02/05 01:26:31;;;;;;;11.20;2.70;;;10.20;99.90;;;;;;5061752;28;20235;-63
2024/02/05 01:28:56;;;;;;;13.32;3.10;;;10.30;99.90;;;;;;5066205;28;20418;-62
2024/02/05 01:31:22;;;;;;;12.23;3.47;;;10.30;99.90;;;;;;5069132;28;20032;-63
2024/02/05 01:33:48;;;;;;;17.45;3.38;;;10.30;99.90;;;;;;5069343;28;21590;-62
2024/02/05 01:36:15;;;;;;;16.25;3.33;;;10.20;99.90;;;;;;5071092;28;20048;-63
2024/02/05 01:38:41;;;;;;;15.55;2.85;;;10.20;99.90;;;;;;5071069;28;20082;-63
2024/02/05 01:41:07;;;;;;;15.60;4.03;;;10.20;99.90;;;;;;5052739;28;20021;-63
2024/02/05 01:43:32;;;;;;;27.13;4.30;;;10.20;99.90;;;;;;5070489;28;20016;-63
2024/02/05 01:45:59;;;;;;;16.73;2.83;;;10.20;99.90;;;;;;5063073;28;20387;-62
2024/02/05 01:48:30;;;;;;;10.63;2.38;;;10.20;99.90;;;;;;5070444;28;20055;-62
2024/02/05 01:50:57;;;;;;;15.73;3.53;;;10.20;99.90;;;;;;5066284;28;20195;-63
2024/02/05 01:53:24;;;;;;;17.52;2.78;;;10.30;99.90;;;;;;5066104;28;20021;-63
2024/02/05 01:55:51;;;;;;;18.88;3.67;;;10.20;99.90;;;;;;5063990;28;20101;-63
2024/02/05 01:58:19;;;;;;;23.42;3.03;;;10.20;99.90;;;;;;5061895;28;20104;-63
2024/02/05 02:00:45;;;;;;;19.88;3.55;;;10.20;99.90;;;;;;5061221;28;20020;-63
2024/02/05 02:03:12;;;;;;;16.13;3.10;;;10.20;99.90;;;;;;5032785;28;20040;-63
2024/02/05 02:05:38;;;;;;;23.88;3.20;;;10.20;99.90;;;;;;5054548;28;20034;-63
2024/02/05 02:08:09;;;;;;;24.35;4.07;;;10.20;99.90;;;;;;5059287;28;20029;-63
2024/02/05 02:10:36;;;;;;;15.18;3.22;;;10.20;99.90;;;;;;5061313;28;20032;-63
2024/02/05 02:13:03;;;;;;;21.13;3.00;;;10.20;99.90;;;;;;5057179;28;20059;-63
2024/02/05 02:15:29;;;;;;;23.30;4.10;;;10.20;99.90;;;;;;5058563;28;20031;-63
2024/02/05 02:17:59;;;;;;;23.92;3.83;;;10.20;99.90;;;;;;5065825;28;20032;-62
2024/02/05 02:20:28;;;;;;;22.30;3.70;;;10.20;99.90;;;;;;5063308;28;20082;-63
2024/02/05 02:22:57;;;;;;;11.52;3.33;;;10.20;99.90;;;;;;5066585;28;20078;-62
2024/02/05 02:25:23;;;;;;;18.63;3.25;;;10.20;99.90;;;;;;5068725;28;20059;-63
2024/02/05 02:27:49;;;;;;;18.10;4.15;;;10.20;99.90;;;;;;5064258;28;20056;-63
2024/02/05 02:30:17;;;;;;;19.38;3.88;;;10.20;99.90;;;;;;5069605;28;20025;-63
2024/02/05 02:33:14;;;;;;;11.23;3.63;;;10.20;99.90;;;;;;5068565;28;20078;-63
2024/02/05 02:36:05;;;;;;;22.40;4.55;;;10.20;99.90;;;;;;5068057;28;20120;-63
2024/02/05 02:38:34;;;;;;;23.27;4.63;;;10.20;99.90;;;;;;5064829;28;20025;-62
2024/02/05 02:41:04;;;;;;;17.05;4.13;;;10.20;99.90;;;;;;5062709;28;20044;-63
2024/02/05 02:43:35;;;;;;;16.58;3.70;;;10.20;99.90;;;;;;5069554;28;20183;-62
2024/02/05 02:46:03;;;;;;;8.93;3.60;;;10.20;99.90;;;;;;5070460;28;20025;-63
2024/02/05 02:48:28;;;;;;;24.33;4.05;;;10.20;99.90;;;;;;5055824;28;20066;-63
2024/02/05 02:50:54;;;;;;;13.75;3.00;;;10.20;99.90;;;;;;5070537;28;20060;-63
2024/02/05 02:53:19;;;;;;;22.00;5.38;;;10.20;99.90;;;;;;5071094;28;20111;-62
2024/02/05 02:55:45;;;;;;;17.02;2.88;;;10.20;99.90;;;;;;5051794;28;20033;-62
2024/02/05 02:58:11;;;;;;;23.33;4.68;;;10.20;99.90;;;;;;5070371;28;21306;-63
2024/02/05 03:00:37;;;;;;;16.50;4.10;;;10.20;99.90;;;;;;5068016;28;20036;-63
2024/02/05 03:03:02;;;;;;;14.98;3.30;;;10.20;99.90;;;;;;5042847;28;20540;-63
2024/02/05 03:05:28;;;;;;;15.85;4.13;;;10.10;99.90;;;;;;5068402;28;20078;-63
2024/02/05 03:07:53;;;;;;;21.77;5.18;;;10.10;99.90;;;;;;5067396;28;20043;-63
2024/02/05 03:10:19;;;;;;;29.15;4.18;;;10.10;99.90;;;;;;5051936;28;20028;-63
2024/02/05 03:12:45;;;;;;;14.45;3.17;;;10.10;99.90;;;;;;5071488;28;20024;-63
2024/02/05 03:15:10;;;;;;;24.65;4.13;;;10.10;99.90;;;;;;5070898;28;20033;-62
2024/02/05 03:17:36;;;;;;;18.98;3.83;;;10.20;99.90;;;;;;5064215;28;20024;-63
2024/02/05 03:20:01;;;;;;;22.45;4.85;;;10.10;99.90;;;;;;5065084;28;20539;-63
2024/02/05 03:22:27;;;;;;;28.02;3.60;;;10.10;99.90;;;;;;5071811;28;20020;-63
2024/02/05 03:24:52;;;;;;;15.38;3.35;;;10.10;99.90;;;;;;5069754;28;20032;-64
2024/02/05 03:27:18;;;;;;;18.63;3.72;;;10.10;99.90;;;;;;5070247;28;20540;-63
2024/02/05 03:29:44;;;;;;;18.25;3.67;;;10.10;99.90;;;;;;5068379;28;20032;-63
2024/02/05 03:32:09;;;;;;;24.60;4.60;;;10.10;99.90;;;;;;5061789;28;20033;-62
2024/02/05 03:34:35;;;;;;;16.25;4.15;;;10.10;99.90;;;;;;5064000;28;20513;-63
2024/02/05 03:37:00;;;;;;;15.20;3.55;;;10.10;99.90;;;;;;5064095;28;20028;-62
2024/02/05 03:39:26;;;;;;;15.15;4.60;;;10.10;99.90;;;;;;5063554;28;20728;-62
2024/02/05 03:41:52;;;;;;;19.73;3.35;;;10.00;99.90;;;;;;5063282;28;20040;-63
2024/02/05 03:44:18;;;;;;;22.58;4.30;;;10.00;99.90;;;;;;5064681;28;20032;-63
2024/02/05 03:46:44;;;;;;;12.40;3.83;;;10.00;99.90;;;;;;5053763;28;20028;-62
2024/02/05 03:49:09;;;;;;;22.17;3.80;;;10.00;99.90;;;;;;5078164;22;20036;-87
2024/02/05 03:51:35;;;;;;;16.25;3.20;;;10.00;99.90;;;;;;5081956;28;20044;-87
2024/02/05 03:54:07;;;;;;;16.02;3.00;;;10.00;99.90;;;;;;5084438;28;20054;-88
2024/02/05 03:56:33;;;;;;;27.90;4.07;;;10.00;99.90;;;;;;5077029;28;20031;-87
2024/02/05 03:58:59;;;;;;;16.40;3.35;;;10.00;99.90;;;;;;5051038;28;20475;-87
2024/02/05 04:01:25;;;;;;;17.40;3.50;;;10.00;99.90;;;;;;5056752;28;20040;-88
2024/02/05 04:03:50;;;;;;;25.58;4.70;;;10.00;99.90;;;;;;5086263;28;20037;-87
2024/02/05 04:06:16;;;;;;;27.15;4.47;;;10.00;99.90;;;;;;5055746;28;20033;-87
2024/02/05 04:08:42;;;;;;;20.83;3.45;;;10.00;99.90;;;;;;5047770;28;20029;-87
2024/02/05 04:11:07;;;;;;;23.23;4.30;;;10.00;99.90;;;;;;5060646;28;20556;-88
2024/02/05 04:13:33;;;;;;;25.45;5.80;;;10.00;99.90;;;;;;5053200;28;20020;-87
2024/02/05 04:15:59;;;;;;;18.17;3.45;;;10.00;99.90;;;;;;5053122;28;20163;-86
2024/02/05 04:18:24;;;;;;;20.60;5.78;;;10.00;99.90;;;;;;5063573;28;20039;-86
2024/02/05 04:20:56;;;;;;;19.17;4.68;;;9.90;99.90;;;;;;5069121;28;20036;-85
2024/02/05 04:23:24;;;;;;;30.15;5.28;;;9.90;99.90;;;;;;5052294;28;20025;-88
2024/02/05 04:25:50;;;;;;;28.98;3.65;;;9.90;99.90;;;;;;5075996;28;20447;-87
2024/02/05 04:28:15;;;;;;;26.35;3.83;;;9.90;99.90;;;;;;5056050;28;20114;-88
2024/02/05 04:30:42;;;;;;;21.15;4.35;;;9.90;99.90;;;;;;5068607;28;20051;-88
2024/02/05 04:33:07;;;;;;;38.03;4.65;;;9.90;99.90;;;;;;5048481;28;20060;-88
2024/02/05 04:35:33;;;;;;;21.67;4.07;;;9.90;99.90;;;;;;5051779;28;20021;-87
2024/02/05 04:37:59;;;;;;;33.45;3.90;;;9.90;99.90;;;;;;5067994;28;20036;-86
2024/02/05 04:40:24;;;;;;;21.15;4.53;;;9.90;99.90;;;;;;5069911;28;20025;-86
2024/02/05 04:42:50;;;;;;;25.35;3.20;;;9.90;99.90;;;;;;5061443;28;20060;-87
2024/02/05 04:45:15;;;;;;;31.20;4.90;;;9.90;99.90;;;;;;5048904;28;20029;-87
2024/02/05 04:47:42;;;;;;;36.83;4.47;;;9.80;99.90;;;;;;5044202;28;20033;-87
2024/02/05 04:50:08;;;;;;;26.88;4.40;;;9.90;99.90;;;;;;5044466;28;20048;-86
2024/02/05 04:52:34;;;;;;;22.77;3.78;;;9.80;99.90;;;;;;5053810;28;20403;-87
2024/02/05 04:54:59;;;;;;;20.67;3.38;;;9.80;99.90;;;;;;5063288;28;20055;-86
2024/02/05 04:57:25;;;;;;;30.35;5.95;;;9.80;99.90;;;;;;5050083;28;20028;-86
2024/02/05 04:59:51;;;;;;;26.05;4.60;;;9.80;99.90;;;;;;5049863;28;20458;-86
2024/02/05 05:02:16;;;;;;;17.20;4.10;;;9.90;99.90;;;;;;5043841;28;20044;-86
2024/02/05 05:04:43;;;;;;;23.10;3.70;;;9.80;99.90;;;;;;5082399;28;20016;-86
2024/02/05 05:07:08;;;;;;;17.75;3.42;;;9.90;99.90;;;;;;5058596;28;20029;-87
2024/02/05 05:09:34;;;;;;;18.15;4.32;;;9.80;99.90;;;;;;5062214;28;20032;-87
2024/02/05 05:12:00;;;;;;;28.25;4.82;;;9.80;99.90;;;;;;5062710;28;20066;-86
2024/02/05 05:14:25;;;;;;;18.38;3.25;;;9.80;99.90;;;;;;5080032;28;20032;-87
2024/02/05 05:16:51;;;;;;;26.73;4.47;;;9.80;99.90;;;;;;5071205;28;20029;-87
2024/02/05 05:19:17;;;;;;;22.58;3.85;;;9.80;99.90;;;;;;5051867;28;20025;-87
2024/02/05 05:21:43;;;;;;;22.55;4.18;;;9.80;99.90;;;;;;5044432;28;20024;-87
2024/02/05 05:24:09;;;;;;;23.48;4.43;;;9.80;99.90;;;;;;5069549;28;20029;-86
2024/02/05 05:26:36;;;;;;;29.73;4.55;;;9.80;99.90;;;;;;5066006;28;20491;-87
2024/02/05 05:29:03;;;;;;;20.30;5.03;;;9.80;99.90;;;;;;5084782;28;20016;-86
2024/02/05 05:31:29;;;;;;;15.85;4.18;;;9.80;99.90;;;;;;5073224;28;20028;-87
2024/02/05 05:33:55;;;;;;;21.90;3.75;;;9.80;99.90;;;;;;5081198;28;20115;-87
2024/02/05 05:36:20;;;;;;;19.55;4.05;;;9.70;99.90;;;;;;5075493;28;20067;-87
2024/02/05 05:38:46;;;;;;;19.60;3.45;;;9.70;99.90;;;;;;5061978;28;20485;-87
2024/02/05 05:41:12;;;;;;;20.65;4.10;;;9.70;99.90;;;;;;5049411;28;20028;-86
2024/02/05 05:43:37;;;;;;;25.83;5.53;;;9.70;99.90;;;;;;5051135;28;20017;-85
2024/02/05 05:46:03;;;;;;;25.33;3.55;;;9.80;99.90;;;;;;5080133;28;20103;-86
2024/02/05 05:48:28;;;;;;;32.13;5.70;;;9.70;99.90;;;;;;5048263;28;20383;-85
2024/02/05 05:50:54;;;;;;;21.80;3.90;;;9.80;99.90;;;;;;5058295;28;20036;-86
2024/02/05 05:53:20;;;;;;;17.60;3.67;;;9.80;99.90;;;;;;5046667;28;20017;-86
2024/02/05 05:55:48;;;;;;;20.85;4.00;;;9.80;99.90;;;;;;5066556;28;20028;-85
2024/02/05 05:58:14;;;;;;;15.25;3.40;;;9.80;99.90;;;;;;5058309;28;20013;-86
2024/02/05 06:00:39;;;;;;;18.83;3.50;;;9.80;99.90;;;;;;5049508;28;20031;-85
2024/02/05 06:03:06;;;;;;;23.02;3.75;;;9.80;99.90;;;;;;5056133;28;20044;-86
2024/02/05 06:05:31;;;;;;;16.45;3.72;;;9.70;99.90;;;;;;5061778;28;20032;-86
2024/02/05 06:07:57;;;;;;;21.23;4.10;;;9.70;99.90;;;;;;5087594;28;20039;-85
2024/02/05 06:10:22;;;;;;;16.23;4.22;;;9.70;99.90;;;;;;5052224;28;20025;-85
2024/02/05 06:12:48;;;;;;;23.77;4.38;;;9.80;99.90;;;;;;5051472;28;20029;-86
2024/02/05 06:15:14;;;;;;;18.50;3.83;;;9.70;99.90;;;;;;5061133;28;20048;-86
2024/02/05 06:17:40;;;;;;;18.67;4.43;;;9.70;99.90;;;;;;5060384;28;20028;-86
2024/02/05 06:20:06;;;;;;;19.65;4.20;;;9.70;99.90;;;;;;5078384;28;20478;-86
2024/02/05 06:22:34;;;;;;;20.60;3.90;;;9.70;99.90;;;;;;5106828;28;20024;-85
2024/02/05 06:25:00;;;;;;;22.92;4.50;;;9.70;99.90;;;;;;5069211;28;20025;-86
2024/02/05 06:27:25;;;;;;;19.90;4.70;;;9.70;99.90;;;;;;5055615;28;20025;-86
2024/02/05 06:29:51;;;;;;;18.65;4.07;;;9.70;99.90;;;;;;5067278;28;20013;-86
2024/02/05 06:32:17;;;;;;;22.00;4.30;;;9.70;99.90;;;;;;5111514;28;20031;-86
2024/02/05 06:34:44;;;;;;;16.48;3.80;;;9.70;99.90;;;;;;5093320;28;20032;-87
2024/02/05 06:37:10;;;;;;;15.90;5.38;;;9.70;99.90;;;;;;5060070;28;20024;-86
2024/02/05 06:39:35;;;;;;;24.30;3.55;;;9.70;99.90;;;;;;5064579;28;20023;-86
2024/02/05 06:42:01;;;;;;;22.48;4.15;;;9.70;99.90;;;;;;5075281;28;20024;-86
2024/02/05 06:44:27;;;;;;;24.35;6.18;;;9.70;99.90;;;;;;5045863;28;20017;-86
2024/02/05 06:46:53;;;;;;;23.88;4.80;;;9.70;99.90;;;;;;5046180;28;20063;-86
2024/02/05 06:49:20;;;;;;;14.88;3.95;;;9.70;99.90;;;;;;5072848;28;20562;-86
2024/02/05 06:51:46;;;;;;;8.00;3.17;;;9.70;99.90;;;;;;5060918;28;20448;-86
2024/02/05 06:54:11;;;;;;;18.85;4.57;;;9.70;99.90;;;;;;5067999;28;20029;-86
2024/02/05 06:56:37;;;;;;;16.80;3.72;;;9.60;99.90;;;;;;5045702;28;20056;-85
2024/02/05 06:59:03;;;;;;;35.05;7.40;;;9.70;99.90;;;;;;5087873;28;20154;-86
2024/02/05 07:01:28;;;;;;;31.85;7.93;;;9.70;99.90;;;;;;5050741;28;20021;-86
2024/02/05 07:03:54;;;;;;;22.20;5.95;;;9.70;99.90;;;;;;5036814;28;20468;-86
2024/02/05 07:06:20;;;;;;;22.67;5.57;;;9.70;99.90;;;;;;5066667;28;20393;-85
2024/02/05 07:08:46;;;;;;;20.88;4.40;;;9.70;99.90;;;;;;5046958;28;20037;-86
2024/02/05 07:11:12;;;;;;;28.52;5.13;;;9.70;99.90;;;;;;5075156;28;20024;-86
2024/02/05 07:13:38;;;;;;;20.95;4.00;;;9.70;99.90;;;;;;5076227;28;20512;-87
2024/02/05 07:16:06;;;;;;;17.85;4.13;;;9.70;99.90;;;;;;5059572;28;20031;-86
2024/02/05 07:18:31;;;;;;;23.48;4.63;;;9.70;99.90;;;;;;5070805;28;20016;-86
2024/02/05 07:21:04;;;;;;;17.50;4.57;;;9.70;99.90;;;;;;5084401;28;20073;-86
2024/02/05 07:23:33;;;;;;;17.80;4.23;;;9.60;99.90;;;;;;5060473;28;20028;-87
2024/02/05 07:25:58;;;;;;;19.52;3.67;;;9.70;99.90;;;;;;5045172;28;20028;-87
2024/02/05 07:28:24;;;;;;;19.80;4.63;;;9.60;99.90;;;;;;5057690;28;20125;-86
2024/02/05 07:30:50;;;;;;;28.30;4.30;;;9.60;99.90;;;;;;5079608;28;20020;-86
2024/02/05 07:33:15;;;;;;;32.47;4.30;;;9.60;99.90;;;;;;5066534;28;20036;-86
2024/02/05 07:35:41;;;;;;;13.02;3.67;;;9.60;99.90;;;;;;5055895;28;20100;-86
2024/02/05 07:38:06;;;;;;;15.23;2.90;;;9.70;99.90;;;;;;5069106;28;20021;-86
2024/02/05 07:40:32;;;;;;;27.42;3.90;;;9.60;99.90;;;;;;5052751;28;20029;-86
2024/02/05 07:42:58;;;;;;;13.23;3.05;;;9.60;99.90;;;;;;5080555;28;20466;-86
2024/02/05 07:45:23;;;;;;;16.10;3.58;;;9.60;99.90;;;;;;5098703;28;20078;-86
2024/02/05 07:47:49;;;;;;;18.27;3.97;;;9.70;99.90;;;;;;5060555;28;20056;-87
2024/02/05 07:50:15;;;;;;;17.15;3.47;;;9.70;99.90;;;;;;5062968;28;20044;-87
2024/02/05 07:52:40;;;;;;;12.43;2.63;;;9.60;99.90;;;;;;5045102;28;20086;-85
2024/02/05 07:55:06;;;;;;;15.85;3.42;;;9.70;99.90;;;;;;5058230;28;20092;-86
2024/02/05 07:57:32;;;;;;;9.65;3.28;;;9.70;99.90;;;;;;5069541;28;20105;-86
2024/02/05 07:59:58;;;;;;;13.90;2.63;;;9.70;99.90;;;;;;5047845;28;20025;-86
2024/02/05 08:02:25;;;;;;;16.85;3.10;;;9.70;99.90;;;;;;5034837;28;20021;-86
2024/02/05 08:04:51;;;;;;;15.75;3.58;;;9.70;99.90;;;;;;5062169;28;20024;-86
2024/02/05 08:07:17;;;;;;;16.50;3.25;;;9.70;99.90;;;;;;5061612;28;20008;-86
2024/02/05 08:09:42;;;;;;;21.40;4.40;;;9.80;99.90;;;;;;5064720;28;20032;-86
2024/02/05 08:12:08;;;;;;;15.82;2.63;;;9.80;99.90;;;;;;5061375;28;20055;-86
2024/02/05 08:14:34;;;;;;;17.77;3.70;;;9.90;99.90;;;;;;5063210;28;20033;-86
2024/02/05 08:16:59;;;;;;;11.07;2.95;;;9.90;99.90;;;;;;5053077;28;20100;-86
2024/02/05 08:19:25;;;;;;;14.63;4.05;;;9.90;99.90;;;;;;5093720;28;20039;-86
2024/02/05 08:21:50;;;;;;;24.88;3.67;;;9.90;99.90;;;;;;5089676;28;20120;-86
2024/02/05 08:24:17;;;;;;;13.57;2.53;;;9.90;99.90;;;;;;5055142;28;20020;-86
2024/02/05 08:26:42;;;;;;;17.58;3.03;;;10.00;99.90;;;;;;5060491;28;20079;-87
2024/02/05 08:29:08;;;;;;;13.88;3.67;;;10.00;99.90;;;;;;5061039;28;20029;-86
2024/02/05 08:31:35;;;;;;;11.57;2.53;;;10.00;99.90;;;;;;5065369;28;20028;-86
2024/02/05 08:34:02;;;;;;;18.10;3.20;;;10.00;99.90;;;;;;5054247;28;20044;-86
2024/02/05 08:36:28;;;;;;;13.15;3.50;;;10.10;99.90;;;;;;5052973;28;20032;-86
2024/02/05 08:38:54;;;;;;;13.20;3.10;;;10.20;99.90;;;;;;5053670;28;20021;-86
2024/02/05 08:41:20;;;;;;;16.48;2.95;;;10.20;99.90;;;;;;5056570;28;20054;-86
2024/02/05 08:43:46;;;;;;;17.00;2.92;;;10.40;99.90;;;;;;5055306;28;20040;-86
2024/02/05 08:46:12;;;;;;;11.05;2.50;;;10.40;99.90;;;;;;5071992;28;20480;-87
2024/02/05 08:48:39;;;;;;;10.15;3.38;;;10.50;99.90;;;;;;5046723;28;20025;-87
2024/02/05 08:51:05;;;;;;;14.93;3.88;;;10.60;99.90;;;;;;5067627;28;20044;-86
2024/02/05 08:53:30;;;;;;;14.63;2.53;;;10.70;99.90;;;;;;5066800;28;20028;-86
2024/02/05 08:55:56;;;;;;;17.42;3.97;;;10.70;99.90;;;;;;5079894;28;20028;-86
2024/02/05 08:58:22;;;;;;;20.83;3.90;;;10.90;99.90;;;;;;5062631;28;20024;-86
2024/02/05 09:00:49;;;;;;;15.98;3.33;;;11.00;99.90;;;;;;5079712;28;20063;-86
2024/02/05 09:03:16;;;;;;;14.05;2.72;;;11.10;99.90;;;;;;5034668;28;20363;-86
2024/02/05 09:05:43;;;;;;;16.38;3.10;;;11.30;99.90;;;;;;5065997;28;20028;-86
2024/02/05 09:08:09;;;;;;;16.73;3.65;;;11.40;99.90;;;;;;5080332;28;20050;-86
2024/02/05 09:10:36;;;;;;;18.13;3.58;;;11.60;99.90;;;;;;5062507;28;20115;-86
2024/02/05 09:13:02;;;;;;;11.40;2.50;;;11.80;99.90;;;;;;5071096;28;20017;-87
2024/02/05 09:15:29;;;;;;;13.05;3.58;;;11.90;99.90;;;;;;5061517;28;20031;-86
2024/02/05 09:17:55;;;;;;;11.10;2.35;;;12.10;99.90;;;;;;5061647;28;20027;-86
2024/02/05 09:20:21;;;;;;;17.02;2.97;;;12.20;99.90;;;;;;5065409;22;20052;-57
2024/02/05 09:22:48;;;;;;;11.73;3.33;;;12.30;99.90;;;;;;5064176;28;20020;-56
2024/02/05 09:25:14;;;;;;;15.93;3.75;;;12.20;99.90;;;;;;5074804;28;20032;-57
2024/02/05 09:27:40;;;;;;;13.68;3.28;;;12.20;99.90;;;;;;5071575;28;20028;-55
2024/02/05 09:30:06;;;;;;;16.83;2.60;;;12.00;99.90;;;;;;5053756;28;20037;-57
2024/02/05 09:32:33;;;;;;;15.75;3.70;;;11.90;99.90;;;;;;5036376;28;20041;-56
2024/02/05 09:34:59;;;;;;;25.33;4.60;;;11.90;99.90;;;;;;5038180;28;20021;-57
2024/02/05 09:37:24;;;;;;;12.80;3.35;;;11.90;99.90;;;;;;5060063;28;20100;-57
2024/02/05 09:39:50;;;;;;;13.10;3.78;;;11.90;99.90;;;;;;5041095;28;20065;-57
2024/02/05 09:42:16;;;;;;;12.30;2.45;;;11.80;99.90;;;;;;5043500;28;20036;-57
2024/02/05 09:44:45;;;;;;;9.77;3.63;;;11.70;99.90;;;;;;5035339;28;20545;-55
2024/02/05 09:47:15;;;;;;;15.95;2.90;;;11.60;99.90;;;;;;5044733;28;20089;-57
2024/02/05 09:49:41;;;;;;;11.65;3.28;;;11.60;99.90;;;;;;5052931;28;20033;-61
2024/02/05 09:52:07;;;;;;;19.95;4.78;;;11.60;99.90;;;;;;5032119;28;20394;-63
2024/02/05 09:54:39;;;;;;;13.50;2.95;;;11.70;99.90;;;;;;5031398;28;20075;-60
2024/02/05 09:57:08;;;;;;;12.98;2.85;;;11.80;99.90;;;;;;5031137;28;20029;-61
2024/02/05 09:59:34;;;;;;;17.02;5.70;;;12.10;99.90;;;;;;5034847;28;20079;-62
2024/02/05 10:02:02;;;;;;;16.02;3.70;;;12.10;99.90;;;;;;5033471;28;20033;-59
2024/02/05 10:04:28;;;;;;;15.18;3.53;;;12.40;99.90;;;;;;5001236;28;20160;-61
2024/02/05 10:06:55;;;;;;;17.52;4.80;;;12.70;99.90;;;;;;5031727;28;20575;-61
2024/02/05 10:09:23;;;;;;;15.98;4.85;;;12.70;99.90;;;;;;5032988;28;20034;-60
2024/02/05 10:11:51;;;;;;;23.30;5.57;;;12.80;99.90;;;;;;5030889;28;20029;-60
2024/02/05 10:14:17;;;;;;;16.67;4.10;;;12.80;99.90;;;;;;5030857;28;20056;-61
2024/02/05 10:16:43;;;;;;;11.60;3.20;;;12.70;99.90;;;;;;5037578;28;20033;-60
2024/02/05 10:19:09;;;;;;;10.93;3.15;;;12.80;99.90;;;;;;5029601;28;20036;-61
2024/02/05 10:21:35;;;;;;;14.35;3.20;;;12.70;99.90;;;;;;5035999;28;20017;-60
2024/02/05 10:24:00;;;;;;;21.33;4.47;;;12.60;99.90;;;;;;5036120;28;20432;-60
2024/02/05 10:26:26;;;;;;;21.98;4.75;;;12.60;99.90;;;;;;5030616;28;20408;-60
2024/02/05 10:28:52;;;;;;;19.70;5.75;;;12.80;99.90;;;;;;5033400;28;20025;-60
2024/02/05 10:31:18;;;;;;;18.63;5.68;;;12.90;99.90;;;;;;5040247;28;20557;-61
2024/02/05 10:33:45;;;;;;;25.92;4.40;;;12.90;99.90;;;;;;5039426;28;20048;-61
2024/02/05 10:36:11;;;;;;;17.13;3.53;;;12.90;99.90;;;;;;5029609;28;20030;-60
2024/02/05 10:38:41;;;;;;;9.95;3.28;;;12.90;99.90;;;;;;5034688;28;20025;-61
2024/02/05 10:41:10;;;;;;;24.10;6.45;;;12.90;99.90;;;;;;5016982;28;20140;-60
2024/02/05 10:43:36;;;;;;;23.60;4.82;;;12.90;99.90;;;;;;5029188;28;20021;-60
2024/02/05 10:46:02;;;;;;;26.20;5.55;;;12.80;99.90;;;;;;5028940;28;20029;-60
2024/02/05 10:48:27;;;;;;;21.27;3.95;;;12.90;99.90;;;;;;5033411;28;20485;-60
2024/02/05 10:50:54;;;;;;;20.95;4.65;;;12.90;99.90;;;;;;5032841;28;20095;-58
2024/02/05 10:53:21;;;;;;;18.48;4.45;;;12.90;99.90;;;;;;5035108;28;20415;-60
2024/02/05 10:55:48;;;;;;;14.30;3.10;;;13.10;99.90;;;;;;5029592;28;20041;-60
2024/02/05 10:58:14;;;;;;;15.23;2.88;;;12.90;99.90;;;;;;5037697;28;20107;-60
2024/02/05 11:00:41;;;;;;;13.70;4.13;;;12.90;99.90;;;;;;5034861;28;20021;-60
2024/02/05 11:03:09;;;;;;;17.35;4.18;;;12.90;99.90;;;;;;5035473;28;20132;-62
2024/02/05 11:05:35;;;;;;;13.73;2.90;;;12.90;99.90;;;;;;5008331;28;20127;-60
2024/02/05 11:08:21;;;;;;;8.00;3.38;;;12.90;99.90;;;;;;5033341;28;20021;-60
2024/02/05 11:10:51;;;;;;;14.10;2.17;;;13.10;99.90;;;;;;5037199;28;20033;-62
2024/02/05 11:13:24;;;;;;;16.98;2.92;;;13.20;99.90;;;;;;5032942;28;20034;-61
2024/02/05 11:15:52;;;;;;;16.58;4.78;;;13.10;99.90;;;;;;5033173;28;20021;-60
2024/02/05 11:18:27;;;;;;;18.75;2.95;;;13.00;99.90;;;;;;5036874;28;20039;-62
2024/02/05 11:20:56;;;;;;;14.85;3.00;;;13.00;99.90;;;;;;5036022;28;20049;-60
2024/02/05 11:23:23;;;;;;;17.15;2.88;;;12.90;99.90;;;;;;5037517;28;20084;-60
2024/02/05 11:25:49;;;;;;;15.25;3.95;;;12.80;99.90;;;;;;5033003;28;20033;-61
2024/02/05 11:28:14;;;;;;;12.75;2.55;;;12.70;99.90;;;;;;5034789;28;20113;-60
2024/02/05 11:30:43;;;;;;;10.18;4.03;;;12.80;99.90;;;;;;5033138;28;20029;-61
2024/02/05 11:33:10;;;;;;;14.10;4.28;;;12.80;99.90;;;;;;5033211;28;20040;-61
2024/02/05 11:35:36;;;;;;;8.98;4.18;;;12.80;99.90;;;;;;5032839;28;20375;-62
2024/02/05 11:38:07;;;;;;;12.07;3.05;;;12.90;99.90;;;;;;5032844;28;20022;-60
2024/02/05 11:40:33;;;;;;;13.25;3.17;;;12.90;99.90;;;;;;5039242;28;20029;-61
2024/02/05 11:43:09;;;;;;;18.02;3.35;;;12.90;99.90;;;;;;5035979;28;20513;-60
2024/02/05 11:45:36;;;;;;;16.02;3.25;;;12.80;99.90;;;;;;5035005;28;20025;-60
2024/02/05 11:48:03;;;;;;;7.75;2.97;;;12.70;99.90;;;;;;5032776;28;20372;-60
2024/02/05 11:50:35;;;;;;;14.52;3.67;;;12.70;99.90;;;;;;5035994;28;20028;-60
2024/02/05 11:53:00;;;;;;;20.85;2.97;;;12.70;99.90;;;;;;5017389;28;20026;-61
2024/02/05 11:55:27;;;;;;;10.40;3.42;;;12.70;99.90;;;;;;5032161;28;20542;-62
2024/02/05 11:57:52;;;;;;;21.27;3.17;;;12.60;99.90;;;;;;5034012;28;20476;-61
2024/02/05 12:00:19;;;;;;;12.35;2.45;;;12.50;99.90;;;;;;5033971;28;20173;-61
2024/02/05 12:02:46;;;;;;;10.30;2.25;;;12.50;99.90;;;;;;5033580;28;20030;-61
2024/02/05 12:05:12;;;;;;;10.93;4.13;;;12.60;99.90;;;;;;5007636;28;20050;-62
2024/02/05 12:07:38;;;;;;;17.90;3.05;;;12.60;99.90;;;;;;5033911;28;20032;-61
2024/02/05 12:10:05;;;;;;;8.15;3.20;;;12.60;99.90;;;;;;5028010;28;20017;-60
2024/02/05 12:12:31;;;;;;;9.57;3.65;;;12.60;99.90;;;;;;5032263;28;20045;-61
2024/02/05 12:14:57;;;;;;;12.73;3.28;;;12.60;99.90;;;;;;5031186;28;20044;-62
2024/02/05 12:17:23;;;;;;;17.55;3.45;;;12.60;99.90;;;;;;5037498;28;20480;-61
2024/02/05 12:20:00;;;;;;;14.95;2.55;;;12.50;99.90;;;;;;5036824;28;20032;-61
2024/02/05 12:22:30;;;;;;;11.35;2.42;;;12.50;99.90;;;;;;5032342;28;20025;-60
2024/02/05 12:24:56;;;;;;;18.58;5.25;;;12.50;99.90;;;;;;5032193;28;20049;-60
2024/02/05 12:27:22;;;;;;;13.55;2.70;;;12.60;99.90;;;;;;5031702;28;20029;-61
2024/02/05 12:29:47;;;;;;;11.60;3.05;;;12.50;99.90;;;;;;5032980;28;20127;-62
2024/02/05 12:32:14;;;;;;;19.23;2.42;;;12.60;99.90;;;;;;5032202;28;20053;-61
2024/02/05 12:34:39;;;;;;;13.73;3.15;;;12.50;99.90;;;;;;5033799;28;20039;-61
2024/02/05 12:37:09;;;;;;;12.98;3.60;;;12.50;99.90;;;;;;5031356;28;20130;-61